Time;durP1;ratioP1;P1;durP2;ratioP2;P2;SDS_P1;SDS_P2;PMS_P1;PMS_P2;Temp;Humidity;BMP_temperature;BMP_pressure;BME280_temperature;BME280_humidity;BME280_pressure;Samples;Min_cycle;Max_cycle;Signal;HPM_P1;HPM_P2
2020/12/13 00:01:25;;;;;;;13.27;9.38;;;7.60;99.90;;;;;;468358;253;28646;-78
2020/12/13 00:03:27;;;;;;;14.60;9.00;;;7.60;99.90;;;;;;468399;253;27541;-76
2020/12/13 00:05:28;;;;;;;11.77;9.20;;;7.60;99.90;;;;;;468360;253;27665;-76
2020/12/13 00:07:29;;;;;;;14.30;8.83;;;7.60;99.90;;;;;;468341;253;28182;-76
2020/12/13 00:09:30;;;;;;;15.37;8.90;;;7.60;99.90;;;;;;468297;253;28352;-77
2020/12/13 00:11:35;;;;;;;13.30;9.23;;;7.60;99.90;;;;;;468159;253;28539;-76
2020/12/13 00:13:33;;;;;;;13.23;8.37;;;7.60;99.90;;;;;;468094;254;28720;-76
2020/12/13 00:15:34;;;;;;;15.80;9.30;;;7.60;99.90;;;;;;468248;253;28276;-76
2020/12/13 00:17:35;;;;;;;13.83;10.30;;;7.60;99.90;;;;;;468216;253;28060;-76
2020/12/13 00:19:37;;;;;;;12.07;9.20;;;7.60;99.90;;;;;;468259;253;28221;-76
2020/12/13 00:21:38;;;;;;;12.60;9.77;;;7.60;99.90;;;;;;468235;253;28289;-76
2020/12/13 00:23:39;;;;;;;15.23;9.93;;;7.60;99.90;;;;;;468218;253;28078;-75
2020/12/13 00:25:40;;;;;;;16.73;12.13;;;7.60;99.90;;;;;;468198;254;28020;-76
2020/12/13 00:27:42;;;;;;;14.10;10.17;;;7.60;99.90;;;;;;468206;253;28928;-76
2020/12/13 00:29:43;;;;;;;13.83;10.03;;;7.60;99.90;;;;;;468252;253;28080;-75
2020/12/13 00:31:44;;;;;;;15.07;10.83;;;7.60;99.90;;;;;;468281;253;28607;-76
2020/12/13 00:33:45;;;;;;;16.13;11.13;;;7.60;99.90;;;;;;468327;253;30214;-76
2020/12/13 00:35:47;;;;;;;15.00;10.67;;;7.60;99.90;;;;;;468368;253;28363;-77
2020/12/13 00:37:48;;;;;;;13.40;10.98;;;7.60;99.90;;;;;;468175;253;28057;-75
2020/12/13 00:39:49;;;;;;;15.98;11.15;;;7.60;99.90;;;;;;468358;254;27660;-76
2020/12/13 00:41:50;;;;;;;19.33;11.20;;;7.50;99.90;;;;;;468277;253;27669;-77
2020/12/13 00:43:52;;;;;;;16.33;11.57;;;7.50;99.90;;;;;;467473;253;28352;-76
2020/12/13 00:45:53;;;;;;;19.73;11.30;;;7.50;99.90;;;;;;467775;253;28539;-76
2020/12/13 00:47:54;;;;;;;17.60;12.20;;;7.60;99.90;;;;;;468154;253;28590;-77
2020/12/13 00:49:55;;;;;;;20.07;12.57;;;7.50;99.90;;;;;;468437;253;27792;-76
2020/12/13 00:51:57;;;;;;;17.50;12.57;;;7.60;99.90;;;;;;468377;253;28841;-76
2020/12/13 00:53:58;;;;;;;19.00;12.80;;;7.60;99.90;;;;;;468284;253;27686;-76
2020/12/13 00:55:59;;;;;;;19.20;12.57;;;7.60;99.90;;;;;;468254;253;27932;-77
2020/12/13 00:58:00;;;;;;;16.57;12.13;;;7.60;99.90;;;;;;468218;253;28096;-76
2020/12/13 01:00:02;;;;;;;17.93;12.50;;;7.60;99.90;;;;;;468232;253;27718;-77
2020/12/13 01:02:05;;;;;;;16.63;11.93;;;7.60;99.90;;;;;;468264;253;28170;-76
2020/12/13 01:04:04;;;;;;;13.87;10.53;;;7.60;99.90;;;;;;468091;254;28663;-76
2020/12/13 01:06:05;;;;;;;16.30;12.33;;;7.60;99.90;;;;;;468227;253;29042;-76
2020/12/13 01:08:07;;;;;;;21.00;11.82;;;7.60;99.90;;;;;;468220;254;28444;-76
2020/12/13 01:10:08;;;;;;;17.37;11.27;;;7.60;99.90;;;;;;468218;253;27590;-77
2020/12/13 01:12:09;;;;;;;17.27;12.20;;;7.60;99.90;;;;;;468246;253;28148;-76
2020/12/13 01:14:11;;;;;;;17.00;12.10;;;7.60;99.90;;;;;;468282;253;28777;-76
2020/12/13 01:16:12;;;;;;;16.17;10.80;;;7.60;99.90;;;;;;468267;254;27970;-76
2020/12/13 01:18:13;;;;;;;14.40;11.07;;;7.60;99.90;;;;;;468374;254;28574;-76
2020/12/13 01:20:14;;;;;;;16.37;11.80;;;7.60;99.90;;;;;;468328;253;28524;-76
2020/12/13 01:22:19;;;;;;;16.90;11.80;;;7.60;99.90;;;;;;468272;253;28490;-75
2020/12/13 01:24:20;;;;;;;15.13;10.93;;;7.60;99.90;;;;;;468177;253;28083;-75
2020/12/13 01:26:21;;;;;;;23.23;12.80;;;7.60;99.90;;;;;;468225;253;29064;-76
2020/12/13 01:28:22;;;;;;;15.70;11.10;;;7.60;99.90;;;;;;468378;253;28004;-76
2020/12/13 01:30:24;;;;;;;15.00;10.80;;;7.60;99.90;;;;;;468389;253;28974;-76
2020/12/13 01:32:25;;;;;;;16.67;11.10;;;7.60;99.90;;;;;;468397;253;28076;-76
2020/12/13 01:34:26;;;;;;;13.47;10.50;;;7.60;99.90;;;;;;468327;253;29544;-73
2020/12/13 01:36:27;;;;;;;16.33;11.40;;;7.60;99.90;;;;;;468304;253;28513;-76
2020/12/13 01:38:29;;;;;;;14.20;11.18;;;7.60;99.90;;;;;;468296;253;28436;-77
2020/12/13 01:40:30;;;;;;;15.37;11.53;;;7.60;99.90;;;;;;468242;254;27552;-76
2020/12/13 01:42:31;;;;;;;13.07;10.47;;;7.60;99.90;;;;;;468129;253;28014;-75
2020/12/13 01:44:32;;;;;;;17.93;12.30;;;7.60;99.90;;;;;;468203;253;29073;-76
2020/12/13 01:46:34;;;;;;;16.20;11.33;;;7.60;99.90;;;;;;468212;253;28068;-76
2020/12/13 01:48:35;;;;;;;15.00;10.20;;;7.60;99.90;;;;;;468231;253;28093;-77
2020/12/13 01:52:44;;;;;;;13.98;10.07;;;7.50;99.90;;;;;;468234;253;28151;-76
2020/12/13 01:54:41;;;;;;;16.53;10.77;;;7.50;99.90;;;;;;467977;254;27577;-76
2020/12/13 01:56:43;;;;;;;13.57;10.00;;;7.50;99.90;;;;;;468262;253;29074;-73
2020/12/13 01:58:46;;;;;;;18.30;10.77;;;7.60;99.90;;;;;;468293;253;28502;-76
2020/12/13 02:00:46;;;;;;;14.80;10.80;;;7.60;99.90;;;;;;468124;254;29411;-77
2020/12/13 02:02:46;;;;;;;14.23;8.90;;;7.60;99.90;;;;;;468347;253;29014;-76
2020/12/13 02:04:48;;;;;;;12.10;10.20;;;7.60;99.90;;;;;;468376;253;28078;-76
2020/12/13 02:06:51;;;;;;;14.63;10.77;;;7.60;99.90;;;;;;468376;253;28984;-76
2020/12/13 02:08:50;;;;;;;12.73;9.60;;;7.60;99.90;;;;;;468286;253;27922;-75
2020/12/13 02:10:51;;;;;;;11.97;10.10;;;7.60;99.90;;;;;;468222;253;28985;-76
2020/12/13 02:12:53;;;;;;;13.67;10.53;;;7.50;99.90;;;;;;468344;253;28059;-77
2020/12/13 02:14:54;;;;;;;14.43;10.57;;;7.60;99.90;;;;;;468365;253;28077;-76
2020/12/13 02:16:55;;;;;;;13.37;10.33;;;7.60;99.90;;;;;;467600;253;28989;-76
2020/12/13 02:18:56;;;;;;;14.30;10.80;;;7.60;99.90;;;;;;467311;253;28556;-75
2020/12/13 02:20:58;;;;;;;12.30;10.73;;;7.60;99.90;;;;;;467956;253;28621;-76
2020/12/13 02:23:01;;;;;;;15.50;9.77;;;7.60;99.90;;;;;;468201;253;27586;-75
2020/12/13 02:25:00;;;;;;;13.60;10.30;;;7.60;99.90;;;;;;468120;254;29562;-77
2020/12/13 02:27:02;;;;;;;13.50;10.68;;;7.60;99.90;;;;;;468184;253;28444;-75
2020/12/13 02:29:03;;;;;;;13.03;9.20;;;7.50;99.90;;;;;;468226;253;27590;-76
2020/12/13 02:31:04;;;;;;;15.43;10.00;;;7.50;99.90;;;;;;468220;253;28422;-76
2020/12/13 02:33:05;;;;;;;15.00;9.17;;;7.50;99.90;;;;;;468250;254;29473;-76
2020/12/13 02:35:07;;;;;;;12.32;9.57;;;7.50;99.90;;;;;;468237;253;28571;-77
2020/12/13 02:37:08;;;;;;;13.65;10.73;;;7.50;99.90;;;;;;468221;253;27583;-76
2020/12/13 02:39:10;;;;;;;10.73;8.90;;;7.50;99.90;;;;;;468261;253;27950;-76
2020/12/13 02:41:10;;;;;;;12.37;9.23;;;7.50;99.90;;;;;;468257;254;27554;-76
2020/12/13 02:43:12;;;;;;;16.57;9.80;;;7.50;99.90;;;;;;468372;253;28171;-76
2020/12/13 02:45:13;;;;;;;13.03;9.40;;;7.50;99.90;;;;;;468321;254;29048;-77
2020/12/13 02:47:14;;;;;;;13.20;10.10;;;7.50;99.90;;;;;;468292;253;29502;-75
2020/12/13 02:49:15;;;;;;;12.40;9.20;;;7.50;99.90;;;;;;467920;253;28987;-76
2020/12/13 02:51:17;;;;;;;12.03;8.90;;;7.50;99.90;;;;;;468211;254;28942;-76
2020/12/13 02:53:18;;;;;;;14.52;9.35;;;7.50;99.90;;;;;;468226;253;28663;-76
2020/12/13 02:55:19;;;;;;;15.80;10.45;;;7.50;99.90;;;;;;468281;253;27694;-76
2020/12/13 02:57:20;;;;;;;14.07;10.77;;;7.50;99.90;;;;;;468313;253;27547;-76
2020/12/13 02:59:22;;;;;;;12.70;10.37;;;7.50;99.90;;;;;;468264;253;28591;-76
2020/12/13 03:01:23;;;;;;;15.20;10.23;;;7.50;99.90;;;;;;468235;253;29612;-76
2020/12/13 03:03:24;;;;;;;12.47;9.53;;;7.50;99.90;;;;;;468315;253;28540;-76
2020/12/13 03:05:25;;;;;;;13.33;10.20;;;7.50;99.90;;;;;;468379;253;28974;-78
2020/12/13 03:07:27;;;;;;;15.77;10.83;;;7.50;99.90;;;;;;468390;253;28944;-76
2020/12/13 03:09:28;;;;;;;14.23;10.67;;;7.50;99.90;;;;;;468326;253;28177;-77
2020/12/13 03:11:29;;;;;;;11.33;9.13;;;7.50;99.90;;;;;;468306;253;28173;-76
2020/12/13 03:13:30;;;;;;;11.23;9.60;;;7.50;99.90;;;;;;468332;253;28264;-76
2020/12/13 03:15:32;;;;;;;11.85;9.35;;;7.50;99.90;;;;;;468321;254;27691;-76
2020/12/13 03:17:33;;;;;;;11.70;10.00;;;7.50;99.90;;;;;;468259;254;28003;-76
2020/12/13 03:19:34;;;;;;;14.20;10.47;;;7.50;99.90;;;;;;468304;253;28645;-74
2020/12/13 03:21:35;;;;;;;12.10;10.07;;;7.50;99.90;;;;;;468237;253;29007;-76
2020/12/13 03:23:37;;;;;;;13.70;10.03;;;7.40;99.90;;;;;;468277;253;27814;-76
2020/12/13 03:25:38;;;;;;;12.40;9.90;;;7.40;99.90;;;;;;468267;253;28983;-76
2020/12/13 03:27:40;;;;;;;12.02;9.73;;;7.40;99.90;;;;;;468317;253;27571;-76
2020/12/13 03:29:44;;;;;;;12.25;10.13;;;7.40;99.90;;;;;;468254;254;27656;-77
2020/12/13 03:31:42;;;;;;;11.52;9.20;;;7.30;99.90;;;;;;467973;254;28263;-76
2020/12/13 03:33:43;;;;;;;10.80;9.48;;;7.30;99.90;;;;;;468298;253;27593;-76
2020/12/13 03:35:44;;;;;;;10.70;9.40;;;7.30;99.90;;;;;;468323;253;27574;-76
2020/12/13 03:37:46;;;;;;;15.32;9.80;;;7.30;99.90;;;;;;468131;253;28629;-75
2020/12/13 03:39:47;;;;;;;10.87;8.97;;;7.30;99.90;;;;;;468361;254;27544;-77
2020/12/13 03:41:48;;;;;;;11.20;9.40;;;7.30;99.90;;;;;;468372;253;28205;-76
2020/12/13 03:43:49;;;;;;;10.30;8.67;;;7.30;99.90;;;;;;468394;254;29030;-76
2020/12/13 03:45:51;;;;;;;10.40;8.07;;;7.30;99.90;;;;;;468338;254;28545;-76
2020/12/13 03:47:52;;;;;;;9.63;7.67;;;7.30;99.90;;;;;;468348;253;28767;-76
2020/12/13 03:49:53;;;;;;;9.57;7.90;;;7.40;99.90;;;;;;468234;253;29539;-75
2020/12/13 03:51:54;;;;;;;9.70;7.63;;;7.40;99.90;;;;;;468148;253;29555;-76
2020/12/13 03:53:56;;;;;;;9.40;8.40;;;7.40;99.90;;;;;;468107;254;29041;-76
2020/12/13 03:55:57;;;;;;;9.83;8.20;;;7.40;99.90;;;;;;468076;254;27904;-76
2020/12/13 03:57:58;;;;;;;8.90;8.00;;;7.40;99.90;;;;;;468022;253;28798;-77
2020/12/13 03:59:59;;;;;;;10.23;9.00;;;7.40;99.90;;;;;;468046;253;27641;-76
2020/12/13 04:02:04;;;;;;;11.10;8.73;;;7.40;99.90;;;;;;468111;254;29041;-76
2020/12/13 04:04:02;;;;;;;8.50;7.57;;;7.40;99.90;;;;;;467938;254;28053;-77
2020/12/13 04:06:03;;;;;;;11.70;8.25;;;7.40;99.90;;;;;;468209;253;27546;-76
2020/12/13 04:08:04;;;;;;;10.77;8.70;;;7.40;99.90;;;;;;468267;253;28808;-76
2020/12/13 04:10:06;;;;;;;8.90;6.97;;;7.40;99.90;;;;;;468260;253;29218;-75
2020/12/13 04:12:07;;;;;;;10.57;8.33;;;7.40;99.90;;;;;;468352;253;29095;-76
2020/12/13 04:14:08;;;;;;;8.45;7.15;;;7.40;99.90;;;;;;468404;253;28195;-77
2020/12/13 04:16:09;;;;;;;11.75;8.32;;;7.30;99.90;;;;;;468148;254;27572;-76
2020/12/13 04:18:11;;;;;;;11.38;8.20;;;7.30;99.90;;;;;;468445;253;27664;-76
2020/12/13 04:20:12;;;;;;;8.77;7.77;;;7.40;99.90;;;;;;468397;253;27684;-76
2020/12/13 04:22:13;;;;;;;11.55;9.27;;;7.30;99.90;;;;;;468422;253;28127;-76
2020/12/13 04:24:14;;;;;;;13.63;9.97;;;7.40;99.90;;;;;;468403;254;28086;-77
2020/12/13 04:26:16;;;;;;;10.87;8.70;;;7.40;99.90;;;;;;468379;254;29229;-75
2020/12/13 04:28:17;;;;;;;12.52;9.48;;;7.30;99.90;;;;;;468348;253;29026;-76
2020/12/13 04:30:18;;;;;;;11.15;8.93;;;7.30;99.90;;;;;;468346;253;27557;-76
2020/12/13 04:32:19;;;;;;;10.70;9.60;;;7.30;99.90;;;;;;468311;253;27575;-75
2020/12/13 04:34:21;;;;;;;12.93;11.10;;;7.30;99.90;;;;;;468333;253;28033;-76
2020/12/13 04:36:22;;;;;;;14.07;9.70;;;7.30;99.90;;;;;;468346;253;29009;-75
2020/12/13 04:38:23;;;;;;;12.20;9.87;;;7.30;99.90;;;;;;468229;253;28511;-76
2020/12/13 04:40:24;;;;;;;12.05;10.10;;;7.30;99.90;;;;;;468270;254;28835;-77
2020/12/13 04:42:26;;;;;;;10.98;9.00;;;7.30;99.90;;;;;;468295;253;27578;-76
2020/12/13 04:44:27;;;;;;;11.07;9.45;;;7.30;99.90;;;;;;468091;254;27658;-76
2020/12/13 04:46:28;;;;;;;12.43;9.90;;;7.30;99.90;;;;;;468169;253;27647;-76
2020/12/13 04:48:30;;;;;;;13.65;10.63;;;7.30;99.90;;;;;;468166;253;27605;-76
2020/12/13 04:50:31;;;;;;;12.13;10.27;;;7.30;99.90;;;;;;468231;253;28058;-76
2020/12/13 04:52:32;;;;;;;12.35;8.55;;;7.40;99.90;;;;;;468150;253;27688;-76
2020/12/13 04:54:33;;;;;;;13.10;10.87;;;7.40;99.90;;;;;;468197;253;27689;-75
2020/12/13 04:56:35;;;;;;;12.30;9.43;;;7.30;99.90;;;;;;468166;253;28977;-76
2020/12/13 04:58:36;;;;;;;11.77;9.25;;;7.30;99.90;;;;;;468190;253;28982;-76
2020/12/13 05:00:37;;;;;;;12.77;9.48;;;7.40;99.90;;;;;;468188;253;27666;-76
2020/12/13 05:02:38;;;;;;;14.05;10.10;;;7.40;99.90;;;;;;468245;254;28108;-76
2020/12/13 05:04:40;;;;;;;12.67;10.10;;;7.40;99.90;;;;;;468233;253;27585;-76
2020/12/13 05:06:41;;;;;;;13.50;10.80;;;7.40;99.90;;;;;;468232;253;28225;-77
2020/12/13 05:08:43;;;;;;;16.55;11.23;;;7.40;99.90;;;;;;468225;253;28994;-75
2020/12/13 05:10:43;;;;;;;14.20;11.37;;;7.40;99.90;;;;;;468212;253;27602;-75
2020/12/13 05:12:45;;;;;;;14.63;11.10;;;7.40;99.90;;;;;;468302;254;28049;-75
2020/12/13 05:14:46;;;;;;;13.17;11.33;;;7.40;99.90;;;;;;468339;253;29220;-75
2020/12/13 05:16:47;;;;;;;16.62;11.85;;;7.40;99.90;;;;;;468351;253;29241;-75
2020/12/13 05:18:48;;;;;;;13.05;10.48;;;7.40;99.90;;;;;;468380;253;27624;-75
2020/12/13 05:20:50;;;;;;;14.10;11.03;;;7.40;99.90;;;;;;468332;253;27576;-75
2020/12/13 05:22:51;;;;;;;12.93;10.60;;;7.40;99.90;;;;;;468246;253;28450;-77
2020/12/13 05:24:52;;;;;;;12.00;10.00;;;7.30;99.90;;;;;;468146;253;28088;-76
2020/12/13 05:26:53;;;;;;;14.00;10.70;;;7.30;99.90;;;;;;468208;253;28157;-75
2020/12/13 05:28:55;;;;;;;13.23;10.40;;;7.30;99.90;;;;;;468228;253;28485;-76
2020/12/13 05:30:56;;;;;;;14.68;10.32;;;7.30;99.90;;;;;;468210;253;27589;-76
2020/12/13 05:32:57;;;;;;;11.82;9.45;;;7.30;99.90;;;;;;468241;253;27657;-75
2020/12/13 05:34:58;;;;;;;13.30;10.53;;;7.30;99.90;;;;;;468235;254;27927;-76
2020/12/13 05:37:00;;;;;;;14.57;10.90;;;7.30;99.90;;;;;;468206;253;28987;-75
2020/12/13 05:39:01;;;;;;;13.00;10.10;;;7.20;99.90;;;;;;468232;253;28249;-76
2020/12/13 05:41:02;;;;;;;13.10;11.10;;;7.30;99.90;;;;;;468222;253;27573;-75
2020/12/13 05:43:06;;;;;;;10.85;9.55;;;7.30;99.90;;;;;;468223;253;29055;-75
2020/12/13 05:47:35;;;;;;;12.77;9.27;;;7.20;99.90;;;;;;468246;253;27591;-76
2020/12/13 05:51:21;;;;;;;9.75;8.63;;;7.20;99.90;;;;;;468267;254;27693;-75
2020/12/13 05:53:16;;;;;;;9.52;8.52;;;7.20;99.90;;;;;;467800;254;27591;-75
2020/12/13 05:55:17;;;;;;;11.57;9.15;;;7.20;99.90;;;;;;468369;254;27600;-75
2020/12/13 05:57:18;;;;;;;11.82;8.73;;;7.20;99.90;;;;;;468326;253;27666;-76
2020/12/13 05:59:19;;;;;;;10.13;8.77;;;7.20;99.90;;;;;;468242;254;27593;-76
2020/12/13 06:01:21;;;;;;;11.45;8.48;;;7.20;99.90;;;;;;468209;253;28006;-75
2020/12/13 06:03:22;;;;;;;11.80;9.00;;;7.20;99.90;;;;;;468272;253;28146;-75
2020/12/13 06:05:23;;;;;;;11.52;8.10;;;7.10;99.90;;;;;;468289;253;27608;-77
2020/12/13 06:07:25;;;;;;;10.55;8.18;;;7.10;99.90;;;;;;468329;253;27594;-75
2020/12/13 06:09:26;;;;;;;9.77;8.57;;;7.10;99.90;;;;;;468361;253;27695;-75
2020/12/13 06:11:27;;;;;;;9.80;8.33;;;7.10;99.90;;;;;;468340;253;28951;-75
2020/12/13 06:13:28;;;;;;;11.23;7.93;;;7.10;99.90;;;;;;468379;254;28988;-75
2020/12/13 06:15:30;;;;;;;10.50;8.50;;;7.10;99.90;;;;;;468393;254;29007;-76
2020/12/13 06:17:31;;;;;;;10.80;8.38;;;7.10;99.90;;;;;;468410;253;29392;-75
2020/12/13 06:19:32;;;;;;;10.20;8.77;;;7.10;99.90;;;;;;468423;253;27595;-76
2020/12/13 06:21:33;;;;;;;10.30;8.20;;;7.10;99.90;;;;;;468366;253;27596;-75
2020/12/13 06:23:35;;;;;;;11.82;8.90;;;7.10;99.90;;;;;;468393;254;28982;-75
2020/12/13 06:25:36;;;;;;;11.40;9.15;;;7.10;99.90;;;;;;468353;253;27926;-76
2020/12/13 06:27:37;;;;;;;11.12;9.05;;;7.10;99.90;;;;;;468241;254;28158;-75
2020/12/13 06:29:38;;;;;;;12.40;9.93;;;7.00;99.90;;;;;;468240;253;28117;-77
2020/12/13 06:31:40;;;;;;;15.15;9.13;;;7.00;99.90;;;;;;468218;253;27676;-75
2020/12/13 06:33:41;;;;;;;13.27;10.52;;;7.00;99.90;;;;;;468252;253;27582;-76
2020/12/13 06:35:42;;;;;;;16.55;9.35;;;7.10;99.90;;;;;;468220;253;27621;-74
2020/12/13 06:37:43;;;;;;;12.57;10.10;;;7.00;99.90;;;;;;468215;253;27686;-75
2020/12/13 06:39:45;;;;;;;12.82;9.05;;;7.00;99.90;;;;;;468308;253;28969;-77
2020/12/13 06:41:47;;;;;;;13.93;10.32;;;7.00;99.90;;;;;;468247;254;27672;-79
2020/12/13 06:43:47;;;;;;;16.15;9.85;;;7.00;99.90;;;;;;468278;254;27572;-75
2020/12/13 06:45:48;;;;;;;11.45;9.38;;;6.90;99.90;;;;;;468365;253;27673;-75
2020/12/13 06:47:50;;;;;;;18.40;9.45;;;6.90;99.90;;;;;;468379;253;27557;-75
2020/12/13 06:49:51;;;;;;;9.88;8.75;;;6.90;99.90;;;;;;468346;253;27991;-75
2020/12/13 06:51:52;;;;;;;12.45;9.23;;;6.90;99.90;;;;;;468299;253;28087;-75
2020/12/13 06:53:53;;;;;;;12.13;9.52;;;6.90;99.90;;;;;;468325;253;27584;-75
2020/12/13 06:55:55;;;;;;;10.52;8.73;;;6.90;99.90;;;;;;468182;253;27573;-75
2020/12/13 06:57:56;;;;;;;11.73;8.88;;;6.90;99.90;;;;;;468195;253;27573;-75
2020/12/13 06:59:57;;;;;;;11.73;8.60;;;6.80;99.90;;;;;;468225;253;27674;-76
2020/12/13 07:01:59;;;;;;;10.98;8.30;;;6.80;99.90;;;;;;468179;253;28072;-75
2020/12/13 07:04:00;;;;;;;7.83;7.03;;;6.80;99.90;;;;;;468200;253;27568;-75
2020/12/13 07:06:01;;;;;;;10.27;7.90;;;6.80;99.90;;;;;;468224;253;27899;-75
2020/12/13 07:08:02;;;;;;;9.98;7.93;;;6.80;99.90;;;;;;468225;253;27660;-76
2020/12/13 07:10:04;;;;;;;9.63;7.70;;;6.80;99.90;;;;;;468151;253;27595;-75
2020/12/13 07:12:05;;;;;;;10.20;7.95;;;6.80;99.90;;;;;;468210;253;27685;-75
2020/12/13 07:14:07;;;;;;;8.75;7.68;;;6.80;99.90;;;;;;468207;253;28076;-76
2020/12/13 07:16:11;;;;;;;9.98;7.93;;;6.70;99.90;;;;;;468212;253;28022;-75
2020/12/13 07:18:09;;;;;;;10.55;7.35;;;6.80;99.90;;;;;;467972;254;27657;-75
2020/12/13 07:20:10;;;;;;;10.98;7.75;;;6.80;99.90;;;;;;468189;253;27584;-76
2020/12/13 07:22:11;;;;;;;9.95;7.20;;;6.80;99.90;;;;;;468254;253;27669;-75
2020/12/13 07:24:12;;;;;;;8.27;6.75;;;6.80;99.90;;;;;;468232;253;27959;-76
2020/12/13 07:26:14;;;;;;;10.85;7.30;;;6.80;99.90;;;;;;468258;253;27581;-75
2020/12/13 07:28:15;;;;;;;8.60;6.37;;;6.80;99.90;;;;;;468298;253;28060;-76
2020/12/13 07:30:16;;;;;;;9.10;6.78;;;6.80;99.90;;;;;;468275;253;28767;-75
2020/12/13 07:32:17;;;;;;;10.20;6.82;;;6.70;99.90;;;;;;468313;253;27601;-74
2020/12/13 07:34:19;;;;;;;8.00;6.70;;;6.70;99.90;;;;;;468388;253;27576;-77
2020/12/13 07:36:20;;;;;;;10.07;7.00;;;6.70;99.90;;;;;;468387;253;27650;-76
2020/12/13 07:38:21;;;;;;;7.55;6.25;;;6.70;99.90;;;;;;468384;253;27670;-75
2020/12/13 07:40:22;;;;;;;9.63;6.20;;;6.70;99.90;;;;;;468360;253;29376;-75
2020/12/13 07:42:24;;;;;;;8.65;6.25;;;6.60;99.90;;;;;;468425;253;28194;-75
2020/12/13 07:44:25;;;;;;;7.55;5.35;;;6.60;99.90;;;;;;468404;253;27583;-75
2020/12/13 07:46:26;;;;;;;7.18;5.80;;;6.70;99.90;;;;;;468395;253;27636;-75
2020/12/13 07:48:27;;;;;;;8.50;6.25;;;6.70;99.90;;;;;;468331;253;27678;-75
2020/12/13 07:50:29;;;;;;;9.43;6.35;;;6.70;99.90;;;;;;468293;253;27907;-76
2020/12/13 07:52:30;;;;;;;9.20;6.45;;;6.70;99.90;;;;;;468355;253;27545;-75
2020/12/13 07:54:32;;;;;;;11.55;7.00;;;6.70;99.90;;;;;;468224;253;28055;-76
2020/12/13 07:56:33;;;;;;;9.45;6.55;;;6.80;99.90;;;;;;468014;254;27998;-75
2020/12/13 07:58:34;;;;;;;8.50;6.90;;;6.80;99.90;;;;;;467793;254;27592;-75
2020/12/13 08:00:35;;;;;;;9.85;6.97;;;6.80;99.90;;;;;;468159;253;27577;-75
2020/12/13 08:02:36;;;;;;;8.27;6.82;;;6.80;99.90;;;;;;468229;253;27661;-75
2020/12/13 08:04:38;;;;;;;12.85;7.87;;;6.80;99.90;;;;;;468265;253;27617;-75
2020/12/13 08:06:39;;;;;;;14.87;8.27;;;6.80;99.90;;;;;;468319;253;28815;-76
2020/12/13 08:08:40;;;;;;;9.50;6.60;;;6.80;99.90;;;;;;477621;246;28142;-75
2020/12/13 08:10:41;;;;;;;9.65;6.97;;;6.80;99.90;;;;;;481907;245;27700;-75
2020/12/13 08:12:43;;;;;;;8.90;7.53;;;6.80;99.90;;;;;;481969;245;27532;-75
2020/12/13 08:14:44;;;;;;;10.05;7.45;;;6.70;99.90;;;;;;481953;245;28925;-75
2020/12/13 08:16:45;;;;;;;9.75;7.00;;;6.70;99.90;;;;;;481923;245;27905;-76
2020/12/13 08:18:46;;;;;;;12.55;7.00;;;6.70;99.90;;;;;;481956;245;27534;-75
2020/12/13 08:20:48;;;;;;;10.07;7.05;;;6.80;99.90;;;;;;481953;245;27979;-75
2020/12/13 08:22:49;;;;;;;13.48;8.10;;;6.80;99.90;;;;;;482044;245;28024;-76
2020/12/13 08:24:50;;;;;;;11.52;7.30;;;6.70;99.90;;;;;;482089;245;27616;-75
2020/12/13 08:26:53;;;;;;;10.93;7.05;;;6.70;99.90;;;;;;481945;245;27548;-76
2020/12/13 08:28:53;;;;;;;13.27;7.70;;;6.80;99.90;;;;;;481898;245;27637;-76
2020/12/13 08:30:54;;;;;;;9.95;7.87;;;6.80;99.90;;;;;;481776;245;27534;-75
2020/12/13 08:32:55;;;;;;;11.40;7.40;;;6.80;99.90;;;;;;481957;245;28076;-75
2020/12/13 08:34:56;;;;;;;8.10;7.22;;;6.80;99.90;;;;;;481998;245;27937;-75
2020/12/13 08:36:58;;;;;;;14.05;8.20;;;6.80;99.90;;;;;;481938;241;27538;-76
2020/12/13 08:38:59;;;;;;;9.18;7.28;;;6.80;99.90;;;;;;481939;245;27636;-76
2020/12/13 08:41:00;;;;;;;12.13;8.00;;;6.90;99.90;;;;;;481786;245;27904;-75
2020/12/13 08:43:02;;;;;;;13.65;7.47;;;6.80;99.90;;;;;;481984;245;27528;-77
2020/12/13 08:45:03;;;;;;;12.15;7.93;;;6.90;99.90;;;;;;481950;245;28064;-75
2020/12/13 08:47:04;;;;;;;9.15;7.70;;;6.90;99.90;;;;;;481914;245;27530;-75
2020/12/13 08:49:06;;;;;;;13.07;7.57;;;6.90;99.90;;;;;;481883;245;27651;-76
2020/12/13 08:51:07;;;;;;;12.95;7.93;;;7.00;99.90;;;;;;481928;245;27597;-75
2020/12/13 08:53:08;;;;;;;10.83;7.90;;;7.00;99.90;;;;;;481976;245;27557;-76
2020/12/13 08:55:09;;;;;;;15.68;8.23;;;7.00;99.90;;;;;;481979;245;28847;-75
2020/12/13 08:57:10;;;;;;;9.82;7.95;;;7.00;99.90;;;;;;482050;245;28027;-75
2020/12/13 08:59:12;;;;;;;11.52;8.25;;;7.00;99.90;;;;;;482040;245;28079;-76
2020/12/13 09:01:13;;;;;;;9.65;8.10;;;7.10;99.90;;;;;;481993;245;27495;-75
2020/12/13 09:03:14;;;;;;;12.52;8.05;;;7.10;99.90;;;;;;482067;245;27616;-76
2020/12/13 09:05:15;;;;;;;12.13;7.90;;;7.10;99.90;;;;;;481964;245;27520;-77
2020/12/13 09:07:17;;;;;;;12.13;8.17;;;7.20;99.90;;;;;;481875;245;28716;-75
2020/12/13 09:09:18;;;;;;;11.80;8.00;;;7.20;99.90;;;;;;481639;245;28321;-75
2020/12/13 09:11:19;;;;;;;10.70;7.93;;;7.20;99.90;;;;;;481965;245;28440;-75
2020/12/13 09:13:20;;;;;;;12.63;8.80;;;7.20;99.90;;;;;;482066;245;28545;-75
2020/12/13 09:15:22;;;;;;;11.73;8.38;;;7.20;99.90;;;;;;482045;245;28657;-75
2020/12/13 09:17:23;;;;;;;10.57;7.43;;;7.20;99.90;;;;;;482084;245;27483;-75
2020/12/13 09:19:24;;;;;;;13.82;9.05;;;7.20;99.90;;;;;;482104;245;28887;-76
2020/12/13 09:21:25;;;;;;;15.25;9.25;;;7.30;99.90;;;;;;481954;245;27473;-75
2020/12/13 09:23:27;;;;;;;12.73;8.20;;;7.20;99.90;;;;;;481986;245;27571;-75
2020/12/13 09:25:28;;;;;;;19.40;8.63;;;7.30;99.90;;;;;;481981;245;29003;-76
2020/12/13 09:27:29;;;;;;;13.15;8.23;;;7.30;99.90;;;;;;481995;245;28027;-76
2020/12/13 09:29:30;;;;;;;10.90;8.00;;;7.40;99.90;;;;;;481947;242;27516;-76
2020/12/13 09:31:32;;;;;;;10.03;8.07;;;7.30;99.90;;;;;;481462;245;28899;-75
2020/12/13 09:33:33;;;;;;;8.83;7.83;;;7.40;99.90;;;;;;481715;245;28129;-76
2020/12/13 09:35:34;;;;;;;13.02;8.15;;;7.40;99.90;;;;;;481965;245;28711;-76
2020/12/13 09:37:35;;;;;;;11.30;7.25;;;7.40;99.90;;;;;;481965;245;27603;-75
2020/12/13 09:39:37;;;;;;;10.83;7.50;;;7.50;99.90;;;;;;481977;245;27529;-76
2020/12/13 09:41:38;;;;;;;15.20;7.70;;;7.40;99.90;;;;;;481887;245;30166;-75
2020/12/13 09:43:39;;;;;;;12.40;8.40;;;7.40;99.90;;;;;;481939;245;28758;-76
2020/12/13 09:45:40;;;;;;;10.50;7.80;;;7.40;99.90;;;;;;481940;245;27617;-76
2020/12/13 09:47:42;;;;;;;12.77;8.00;;;7.50;99.90;;;;;;481640;245;28867;-75
2020/12/13 09:49:43;;;;;;;9.37;7.80;;;7.50;99.90;;;;;;482086;245;28451;-75
2020/12/13 09:51:44;;;;;;;13.07;7.93;;;7.50;99.90;;;;;;482006;245;28180;-75
2020/12/13 09:53:46;;;;;;;9.63;6.90;;;7.60;99.90;;;;;;482120;245;27990;-76
2020/12/13 09:55:47;;;;;;;9.10;7.17;;;7.50;99.90;;;;;;482119;245;28872;-75
2020/12/13 09:57:48;;;;;;;10.43;7.57;;;7.60;99.90;;;;;;482092;245;28958;-75
2020/12/13 09:59:49;;;;;;;9.30;7.23;;;7.60;99.90;;;;;;482032;245;28574;-76
2020/12/13 10:01:50;;;;;;;12.33;7.70;;;7.60;99.90;;;;;;481753;245;28145;-76
2020/12/13 10:03:54;;;;;;;13.57;7.53;;;7.50;99.90;;;;;;482038;245;29356;-77
2020/12/13 10:06:13;;;;;;;10.77;6.45;;;7.40;99.90;;;;;;481555;246;28591;-75
2020/12/13 10:10:17;;;;;;;12.13;6.70;;;7.50;99.90;;;;;;481843;246;27552;-75
2020/12/13 10:12:18;;;;;;;12.57;6.90;;;7.40;99.90;;;;;;481959;245;28126;-75
2020/12/13 10:14:20;;;;;;;12.73;6.87;;;7.40;99.90;;;;;;481949;245;28692;-75
2020/12/13 10:16:20;;;;;;;9.07;6.50;;;7.40;99.90;;;;;;482097;245;28407;-75
2020/12/13 10:18:22;;;;;;;16.73;7.20;;;7.40;99.90;;;;;;481935;241;28021;-76
2020/12/13 10:20:23;;;;;;;11.23;6.87;;;7.50;99.90;;;;;;481886;244;27895;-77
2020/12/13 10:22:24;;;;;;;12.67;6.37;;;7.50;99.90;;;;;;481966;245;29476;-75
2020/12/13 10:24:25;;;;;;;8.80;6.90;;;7.60;99.90;;;;;;481933;246;28898;-76
2020/12/13 10:26:27;;;;;;;12.33;6.67;;;7.60;99.90;;;;;;481989;246;28483;-76
2020/12/13 10:28:28;;;;;;;14.33;6.90;;;7.70;99.90;;;;;;482033;245;28591;-75
2020/12/13 10:30:29;;;;;;;13.37;6.33;;;7.70;99.90;;;;;;481698;245;28020;-76
2020/12/13 10:32:30;;;;;;;12.20;5.67;;;7.70;99.90;;;;;;481541;245;27873;-75
2020/12/13 10:34:32;;;;;;;10.90;6.30;;;7.80;99.90;;;;;;481982;245;27978;-75
2020/12/13 10:36:33;;;;;;;9.00;5.50;;;7.80;99.90;;;;;;481956;245;28100;-77
2020/12/13 10:38:34;;;;;;;9.83;5.53;;;7.70;99.90;;;;;;482040;245;27859;-75